sensor_id;sensor_type;location;lat;lon;timestamp;pressure;altitude;pressure_sealevel;temperature;humidity
84724;BME280;74944;52.322;16.918;2024-02-04T00:00:47;100673.63;;;7.93;83.29
84724;BME280;74944;52.322;16.918;2024-02-04T00:03:33;100669.78;;;7.89;82.63
84724;BME280;74944;52.322;16.918;2024-02-04T00:05:58;100670.91;;;7.83;82.94
84724;BME280;74944;52.322;16.918;2024-02-04T00:08:24;100669.28;;;7.77;82.93
84724;BME280;74944;52.322;16.918;2024-02-04T00:10:50;100664.06;;;7.80;82.67
84724;BME280;74944;52.322;16.918;2024-02-04T00:13:15;100666.00;;;7.75;83.44
84724;BME280;74944;52.322;16.918;2024-02-04T00:15:41;100670.94;;;7.73;82.44
84724;BME280;74944;52.322;16.918;2024-02-04T00:18:06;100661.09;;;7.67;81.83
84724;BME280;74944;52.322;16.918;2024-02-04T00:20:32;100660.25;;;7.72;81.51
84724;BME280;74944;52.322;16.918;2024-02-04T00:22:58;100662.19;;;7.71;80.97
84724;BME280;74944;52.322;16.918;2024-02-04T00:25:24;100668.22;;;7.63;80.94
84724;BME280;74944;52.322;16.918;2024-02-04T00:27:49;100670.41;;;7.61;80.12
84724;BME280;74944;52.322;16.918;2024-02-04T00:30:15;100657.81;;;7.60;79.48
84724;BME280;74944;52.322;16.918;2024-02-04T00:32:40;100669.03;;;7.64;78.13
84724;BME280;74944;52.322;16.918;2024-02-04T00:35:06;100674.75;;;7.67;77.47
84724;BME280;74944;52.322;16.918;2024-02-04T00:37:32;100672.03;;;7.62;77.66
84724;BME280;74944;52.322;16.918;2024-02-04T00:39:57;100665.78;;;7.57;77.47
84724;BME280;74944;52.322;16.918;2024-02-04T00:42:23;100660.84;;;7.54;76.39
84724;BME280;74944;52.322;16.918;2024-02-04T00:44:48;100669.31;;;7.47;76.60
84724;BME280;74944;52.322;16.918;2024-02-04T00:47:14;100669.88;;;7.49;76.65
84724;BME280;74944;52.322;16.918;2024-02-04T00:49:40;100683.28;;;7.41;77.02
84724;BME280;74944;52.322;16.918;2024-02-04T00:52:05;100680.56;;;7.36;77.39
84724;BME280;74944;52.322;16.918;2024-02-04T00:54:31;100676.44;;;7.43;76.59
84724;BME280;74944;52.322;16.918;2024-02-04T00:56:56;100662.50;;;7.35;77.06
84724;BME280;74944;52.322;16.918;2024-02-04T00:59:23;100670.72;;;7.30;77.73
84724;BME280;74944;52.322;16.918;2024-02-04T01:01:48;100674.25;;;7.41;77.11
84724;BME280;74944;52.322;16.918;2024-02-04T01:04:14;100681.34;;;7.42;77.28
84724;BME280;74944;52.322;16.918;2024-02-04T01:06:40;100686.28;;;7.35;78.01
84724;BME280;74944;52.322;16.918;2024-02-04T01:09:06;100674.56;;;7.34;78.00
84724;BME280;74944;52.322;16.918;2024-02-04T01:11:32;100661.16;;;7.33;78.05
84724;BME280;74944;52.322;16.918;2024-02-04T01:13:57;100664.97;;;7.32;78.41
84724;BME280;74944;52.322;16.918;2024-02-04T01:16:23;100646.66;;;7.27;78.34
84724;BME280;74944;52.322;16.918;2024-02-04T01:18:48;100653.78;;;7.28;78.57
84724;BME280;74944;52.322;16.918;2024-02-04T01:21:14;100654.34;;;7.30;78.75
84724;BME280;74944;52.322;16.918;2024-02-04T01:23:40;100662.53;;;7.30;79.15
84724;BME280;74944;52.322;16.918;2024-02-04T01:26:05;100667.72;;;7.27;79.09
84724;BME280;74944;52.322;16.918;2024-02-04T01:28:31;100665.50;;;7.24;79.25
84724;BME280;74944;52.322;16.918;2024-02-04T01:30:56;100662.53;;;7.20;79.85
84724;BME280;74944;52.322;16.918;2024-02-04T01:33:22;100673.16;;;7.22;80.51
84724;BME280;74944;52.322;16.918;2024-02-04T01:35:47;100664.44;;;7.20;80.61
84724;BME280;74944;52.322;16.918;2024-02-04T01:38:13;100679.19;;;7.19;81.65
84724;BME280;74944;52.322;16.918;2024-02-04T01:40:38;100664.44;;;7.15;81.65
84724;BME280;74944;52.322;16.918;2024-02-04T01:43:04;100647.22;;;7.19;81.92
84724;BME280;74944;52.322;16.918;2024-02-04T01:45:30;100662.25;;;7.17;82.12
84724;BME280;74944;52.322;16.918;2024-02-04T01:47:56;100662.81;;;7.14;82.59
84724;BME280;74944;52.322;16.918;2024-02-04T01:50:22;100644.50;;;7.19;82.42
84724;BME280;74944;52.322;16.918;2024-02-04T01:52:49;100665.53;;;7.14;82.77
84724;BME280;74944;52.322;16.918;2024-02-04T01:55:16;100662.28;;;7.12;82.40
84724;BME280;74944;52.322;16.918;2024-02-04T01:57:42;100661.16;;;7.13;82.31
84724;BME280;74944;52.322;16.918;2024-02-04T02:00:08;100654.34;;;7.10;82.78
84724;BME280;74944;52.322;16.918;2024-02-04T02:02:38;100650.50;;;7.16;82.04
84724;BME280;74944;52.322;16.918;2024-02-04T02:05:04;100642.88;;;7.28;81.64
84724;BME280;74944;52.322;16.918;2024-02-04T02:07:31;100646.94;;;7.31;81.34
84724;BME280;74944;52.322;16.918;2024-02-04T02:09:56;100633.84;;;7.33;81.88
84724;BME280;74944;52.322;16.918;2024-02-04T02:12:29;100634.91;;;7.32;81.80
84724;BME280;74944;52.322;16.918;2024-02-04T02:15:14;100641.47;;;7.36;82.21
84724;BME280;74944;52.322;16.918;2024-02-04T02:20:32;100652.41;;;7.36;82.09
84724;BME280;74944;52.322;16.918;2024-02-04T02:23:11;100660.88;;;7.34;82.25
84724;BME280;74944;52.322;16.918;2024-02-04T02:25:37;100665.53;;;7.39;82.09
84724;BME280;74944;52.322;16.918;2024-02-04T02:28:05;100666.63;;;7.43;81.79
84724;BME280;74944;52.322;16.918;2024-02-04T02:30:31;100660.06;;;7.39;81.92
84724;BME280;74944;52.322;16.918;2024-02-04T02:32:57;100656.22;;;7.40;82.00
84724;BME280;74944;52.322;16.918;2024-02-04T02:35:23;100657.03;;;7.40;82.16
84724;BME280;74944;52.322;16.918;2024-02-04T02:40:23;100650.22;;;7.28;82.95
84724;BME280;74944;52.322;16.918;2024-02-04T02:42:52;100651.06;;;7.18;82.87
84724;BME280;74944;52.322;16.918;2024-02-04T02:45:21;100645.59;;;7.13;83.11
84724;BME280;74944;52.322;16.918;2024-02-04T02:47:50;100652.97;;;7.13;83.05
84724;BME280;74944;52.322;16.918;2024-02-04T02:50:16;100645.06;;;7.07;83.18
84724;BME280;74944;52.322;16.918;2024-02-04T02:52:42;100648.59;;;7.02;83.43
84724;BME280;74944;52.322;16.918;2024-02-04T02:55:08;100645.31;;;6.95;83.52
84724;BME280;74944;52.322;16.918;2024-02-04T02:57:33;100644.25;;;6.96;83.28
84724;BME280;74944;52.322;16.918;2024-02-04T02:59:59;100648.34;;;6.94;82.96
84724;BME280;74944;52.322;16.918;2024-02-04T03:02:26;100658.72;;;6.92;83.05
84724;BME280;74944;52.322;16.918;2024-02-04T03:04:51;100660.63;;;6.96;82.72
84724;BME280;74944;52.322;16.918;2024-02-04T03:07:18;100680.56;;;6.92;82.74
84724;BME280;74944;52.322;16.918;2024-02-04T03:09:43;100670.72;;;6.91;82.59
84724;BME280;74944;52.322;16.918;2024-02-04T03:12:09;100672.88;;;6.89;83.02
84724;BME280;74944;52.322;16.918;2024-02-04T03:14:35;100668.81;;;6.86;83.05
84724;BME280;74944;52.322;16.918;2024-02-04T03:17:01;100662.53;;;6.86;82.75
84724;BME280;74944;52.322;16.918;2024-02-04T03:19:26;100666.63;;;6.83;82.71
84724;BME280;74944;52.322;16.918;2024-02-04T03:21:52;100669.88;;;6.80;82.83
84724;BME280;74944;52.322;16.918;2024-02-04T03:24:17;100666.59;;;6.78;82.61
84724;BME280;74944;52.322;16.918;2024-02-04T03:26:43;100674.81;;;6.73;83.10
84724;BME280;74944;52.322;16.918;2024-02-04T03:29:08;100676.94;;;6.67;83.30
84724;BME280;74944;52.322;16.918;2024-02-04T03:31:34;100677.47;;;6.59;83.45
84724;BME280;74944;52.322;16.918;2024-02-04T03:34:00;100673.38;;;6.56;82.75
84724;BME280;74944;52.322;16.918;2024-02-04T03:36:25;100675.28;;;6.51;83.16
84724;BME280;74944;52.322;16.918;2024-02-04T03:38:51;100673.09;;;6.48;83.36
84724;BME280;74944;52.322;16.918;2024-02-04T03:41:17;100670.91;;;6.45;83.01
84724;BME280;74944;52.322;16.918;2024-02-04T03:43:43;100673.09;;;6.43;83.38
84724;BME280;74944;52.322;16.918;2024-02-04T03:46:13;100678.56;;;6.43;83.17
84724;BME280;74944;52.322;16.918;2024-02-04T03:48:38;100674.72;;;6.39;83.10
84724;BME280;74944;52.322;16.918;2024-02-04T03:51:04;100673.63;;;6.35;82.82
84724;BME280;74944;52.322;16.918;2024-02-04T03:53:30;100671.41;;;6.32;83.01
84724;BME280;74944;52.322;16.918;2024-02-04T03:55:55;100670.84;;;6.25;83.33
84724;BME280;74944;52.322;16.918;2024-02-04T03:58:21;100662.97;;;6.29;82.33
84724;BME280;74944;52.322;16.918;2024-02-04T04:00:55;100655.84;;;6.33;82.15
84724;BME280;74944;52.322;16.918;2024-02-04T04:03:21;100672.47;;;6.26;82.48
84724;BME280;74944;52.322;16.918;2024-02-04T04:05:47;100678.47;;;6.28;81.58
84724;BME280;74944;52.322;16.918;2024-02-04T04:08:12;100673.59;;;6.30;81.50
84724;BME280;74944;52.322;16.918;2024-02-04T04:10:38;100668.41;;;6.34;81.80
84724;BME280;74944;52.322;16.918;2024-02-04T04:13:04;100671.69;;;6.36;81.47
84724;BME280;74944;52.322;16.918;2024-02-04T04:15:30;100661.91;;;6.39;81.57
84724;BME280;74944;52.322;16.918;2024-02-04T04:17:56;100676.09;;;6.41;81.17
84724;BME280;74944;52.322;16.918;2024-02-04T04:20:21;100673.88;;;6.38;81.43
84724;BME280;74944;52.322;16.918;2024-02-04T04:22:47;100682.91;;;6.44;81.59
84724;BME280;74944;52.322;16.918;2024-02-04T04:25:14;100676.63;;;6.48;81.32
84724;BME280;74944;52.322;16.918;2024-02-04T04:27:39;100684.00;;;6.48;81.33
84724;BME280;74944;52.322;16.918;2024-02-04T04:30:05;100684.56;;;6.50;81.03
84724;BME280;74944;52.322;16.918;2024-02-04T04:32:31;100680.72;;;6.51;81.35
84724;BME280;74944;52.322;16.918;2024-02-04T04:34:57;100686.47;;;6.49;81.00
84724;BME280;74944;52.322;16.918;2024-02-04T04:37:23;100689.22;;;6.49;81.26
84724;BME280;74944;52.322;16.918;2024-02-04T04:39:49;100682.66;;;6.45;81.73
84724;BME280;74944;52.322;16.918;2024-02-04T04:42:14;100682.09;;;6.43;81.80
84724;BME280;74944;52.322;16.918;2024-02-04T04:44:40;100687.28;;;6.50;81.67
84724;BME280;74944;52.322;16.918;2024-02-04T04:47:05;100674.47;;;6.50;81.37
84724;BME280;74944;52.322;16.918;2024-02-04T04:49:31;100679.88;;;6.40;81.35
84724;BME280;74944;52.322;16.918;2024-02-04T04:51:56;100682.34;;;6.37;81.27
84724;BME280;74944;52.322;16.918;2024-02-04T04:54:22;100677.97;;;6.31;81.92
84724;BME280;74944;52.322;16.918;2024-02-04T04:56:48;100674.44;;;6.31;81.71
84724;BME280;74944;52.322;16.918;2024-02-04T04:59:15;100682.59;;;6.31;81.35
84724;BME280;74944;52.322;16.918;2024-02-04T05:01:50;100693.53;;;6.40;81.13
84724;BME280;74944;52.322;16.918;2024-02-04T05:04:16;100686.44;;;6.44;81.05
84724;BME280;74944;52.322;16.918;2024-02-04T05:06:44;100677.47;;;6.49;80.95
84724;BME280;74944;52.322;16.918;2024-02-04T05:09:09;100678.00;;;6.51;80.59
84724;BME280;74944;52.322;16.918;2024-02-04T05:11:35;100671.47;;;6.57;79.64
84724;BME280;74944;52.322;16.918;2024-02-04T05:14:01;100664.38;;;6.61;79.52
84724;BME280;74944;52.322;16.918;2024-02-04T05:16:26;100670.69;;;6.61;79.74
84724;BME280;74944;52.322;16.918;2024-02-04T05:18:52;100669.31;;;6.64;79.48
84724;BME280;74944;52.322;16.918;2024-02-04T05:21:18;100675.31;;;6.71;78.81
84724;BME280;74944;52.322;16.918;2024-02-04T05:23:45;100668.22;;;6.74;78.17
84724;BME280;74944;52.322;16.918;2024-02-04T05:26:10;100670.69;;;6.76;78.63
84724;BME280;74944;52.322;16.918;2024-02-04T05:28:36;100658.16;;;6.80;78.65
84724;BME280;74944;52.322;16.918;2024-02-04T05:31:01;100658.97;;;6.85;78.27
84724;BME280;74944;52.322;16.918;2024-02-04T05:33:28;100654.59;;;6.84;78.26
84724;BME280;74944;52.322;16.918;2024-02-04T05:35:53;100655.13;;;6.91;77.50
84724;BME280;74944;52.322;16.918;2024-02-04T05:38:21;100650.78;;;6.90;78.19
84724;BME280;74944;52.322;16.918;2024-02-04T05:40:46;100639.59;;;6.92;77.75
84724;BME280;74944;52.322;16.918;2024-02-04T05:43:12;100635.22;;;6.91;77.45
84724;BME280;74944;52.322;16.918;2024-02-04T05:45:37;100636.03;;;6.91;77.78
84724;BME280;74944;52.322;16.918;2024-02-04T05:48:07;100635.78;;;6.98;77.18
84724;BME280;74944;52.322;16.918;2024-02-04T05:50:33;100630.03;;;7.04;76.84
84724;BME280;74944;52.322;16.918;2024-02-04T05:52:59;100631.94;;;7.08;76.43
84724;BME280;74944;52.322;16.918;2024-02-04T05:55:24;100633.56;;;7.09;77.17
84724;BME280;74944;52.322;16.918;2024-02-04T05:57:50;100624.03;;;7.12;76.90
84724;BME280;74944;52.322;16.918;2024-02-04T06:00:16;100645.31;;;7.15;77.07
84724;BME280;74944;52.322;16.918;2024-02-04T06:02:42;100642.31;;;7.16;77.09
84724;BME280;74944;52.322;16.918;2024-02-04T06:05:11;100643.69;;;7.19;76.92
84724;BME280;74944;52.322;16.918;2024-02-04T06:07:37;100630.84;;;7.19;76.63
84724;BME280;74944;52.322;16.918;2024-02-04T06:10:02;100620.22;;;7.18;77.05
84724;BME280;74944;52.322;16.918;2024-02-04T06:12:29;100617.19;;;7.19;77.33
84724;BME280;74944;52.322;16.918;2024-02-04T06:14:55;100615.53;;;7.23;77.04
84724;BME280;74944;52.322;16.918;2024-02-04T06:17:21;100601.34;;;7.26;76.81
84724;BME280;74944;52.322;16.918;2024-02-04T06:19:46;100605.19;;;7.20;77.27
84724;BME280;74944;52.322;16.918;2024-02-04T06:22:12;100590.44;;;7.16;77.34
84724;BME280;74944;52.322;16.918;2024-02-04T06:24:37;100585.75;;;7.22;76.67
84724;BME280;74944;52.322;16.918;2024-02-04T06:27:07;100590.97;;;7.13;77.04
84724;BME280;74944;52.322;16.918;2024-02-04T06:29:33;100597.81;;;7.11;77.33
84724;BME280;74944;52.322;16.918;2024-02-04T06:31:59;100599.72;;;7.10;77.13
84724;BME280;74944;52.322;16.918;2024-02-04T06:34:24;100593.44;;;7.10;77.05
84724;BME280;74944;52.322;16.918;2024-02-04T06:36:50;100587.44;;;7.18;76.18
84724;BME280;74944;52.322;16.918;2024-02-04T06:39:16;100597.81;;;7.11;76.50
84724;BME280;74944;52.322;16.918;2024-02-04T06:41:41;100583.59;;;7.09;76.78
84724;BME280;74944;52.322;16.918;2024-02-04T06:44:07;100590.72;;;7.10;76.45
84724;BME280;74944;52.322;16.918;2024-02-04T06:46:33;100584.97;;;7.11;76.59
84724;BME280;74944;52.322;16.918;2024-02-04T06:48:58;100588.78;;;7.10;76.63
84724;BME280;74944;52.322;16.918;2024-02-04T06:51:24;100576.53;;;7.08;76.37
84724;BME280;74944;52.322;16.918;2024-02-04T06:53:50;100597.81;;;7.11;76.88
84724;BME280;74944;52.322;16.918;2024-02-04T06:56:15;100591.25;;;7.12;76.45
84724;BME280;74944;52.322;16.918;2024-02-04T06:58:41;100595.06;;;7.11;76.71
84724;BME280;74944;52.322;16.918;2024-02-04T07:01:07;100598.06;;;7.09;76.86
84724;BME280;74944;52.322;16.918;2024-02-04T07:03:33;100594.00;;;7.12;77.21
84724;BME280;74944;52.322;16.918;2024-02-04T07:05:59;100589.31;;;7.17;77.05
84724;BME280;74944;52.322;16.918;2024-02-04T07:08:25;100595.59;;;7.23;76.57
84724;BME280;74944;52.322;16.918;2024-02-04T07:10:51;100587.13;;;7.24;77.22
84724;BME280;74944;52.322;16.918;2024-02-04T07:13:17;100587.69;;;7.26;76.71
84724;BME280;74944;52.322;16.918;2024-02-04T07:15:43;100580.56;;;7.30;76.46
84724;BME280;74944;52.322;16.918;2024-02-04T07:18:09;100587.94;;;7.30;76.98
84724;BME280;74944;52.322;16.918;2024-02-04T07:20:35;100582.75;;;7.38;77.12
84724;BME280;74944;52.322;16.918;2024-02-04T07:23:01;100574.25;;;7.44;76.62
84724;BME280;74944;52.322;16.918;2024-02-04T07:25:27;100572.88;;;7.47;76.56
84724;BME280;74944;52.322;16.918;2024-02-04T07:27:53;100579.41;;;7.46;76.46
84724;BME280;74944;52.322;16.918;2024-02-04T07:30:19;100578.88;;;7.49;76.71
84724;BME280;74944;52.322;16.918;2024-02-04T07:32:46;100573.69;;;7.47;76.58
84724;BME280;74944;52.322;16.918;2024-02-04T07:35:12;100586.25;;;7.43;77.62
84724;BME280;74944;52.322;16.918;2024-02-04T07:37:37;100579.19;;;7.43;77.45
84724;BME280;74944;52.322;16.918;2024-02-04T07:40:04;100579.41;;;7.46;77.33
84724;BME280;74944;52.322;16.918;2024-02-04T07:42:32;100585.69;;;7.51;77.63
84724;BME280;74944;52.322;16.918;2024-02-04T07:44:58;100587.88;;;7.49;78.26
84724;BME280;74944;52.322;16.918;2024-02-04T07:47:24;100592.81;;;7.52;78.67
84724;BME280;74944;52.322;16.918;2024-02-04T07:49:50;100592.81;;;7.52;78.47
84724;BME280;74944;52.322;16.918;2024-02-04T07:52:15;100589.50;;;7.55;79.14
84724;BME280;74944;52.322;16.918;2024-02-04T07:54:41;100601.53;;;7.59;79.03
84724;BME280;74944;52.322;16.918;2024-02-04T07:57:08;100578.81;;;7.64;78.69
84724;BME280;74944;52.322;16.918;2024-02-04T07:59:34;100579.63;;;7.64;78.89
84724;BME280;74944;52.322;16.918;2024-02-04T08:02:00;100583.44;;;7.68;79.38
84724;BME280;74944;52.322;16.918;2024-02-04T08:04:26;100569.78;;;7.73;79.23
84724;BME280;74944;52.322;16.918;2024-02-04T08:06:52;100551.19;;;7.70;79.28
84724;BME280;74944;52.322;16.918;2024-02-04T08:09:18;100547.88;;;7.78;78.64
84724;BME280;74944;52.322;16.918;2024-02-04T08:11:44;100545.13;;;7.83;78.68
84724;BME280;74944;52.322;16.918;2024-02-04T08:14:09;100545.09;;;7.88;78.67
84724;BME280;74944;52.322;16.918;2024-02-04T08:16:35;100551.63;;;7.92;78.56
84724;BME280;74944;52.322;16.918;2024-02-04T08:19:01;100577.06;;;7.92;78.41
84724;BME280;74944;52.322;16.918;2024-02-04T08:21:26;100564.72;;;8.00;78.02
84724;BME280;74944;52.322;16.918;2024-02-04T08:23:52;100555.41;;;8.01;77.50
84724;BME280;74944;52.322;16.918;2024-02-04T08:26:17;100558.13;;;8.06;77.64
84724;BME280;74944;52.322;16.918;2024-02-04T08:28:43;100544.44;;;8.11;77.07
84724;BME280;74944;52.322;16.918;2024-02-04T08:31:09;100536.50;;;8.14;76.31
84724;BME280;74944;52.322;16.918;2024-02-04T08:33:35;100551.78;;;8.15;76.63
84724;BME280;74944;52.322;16.918;2024-02-04T08:36:00;100538.13;;;8.15;76.70
84724;BME280;74944;52.322;16.918;2024-02-04T08:38:26;100538.97;;;8.16;77.06
84724;BME280;74944;52.322;16.918;2024-02-04T08:40:51;100547.38;;;8.19;76.29
84724;BME280;74944;52.322;16.918;2024-02-04T08:43:17;100545.50;;;8.19;76.10
84724;BME280;74944;52.322;16.918;2024-02-04T08:45:43;100539.97;;;8.24;76.42
84724;BME280;74944;52.322;16.918;2024-02-04T08:48:08;100541.59;;;8.30;76.38
84724;BME280;74944;52.322;16.918;2024-02-04T08:50:34;100550.91;;;8.29;75.85
84724;BME280;74944;52.322;16.918;2024-02-04T08:53:00;100547.06;;;8.30;75.66
84724;BME280;74944;52.322;16.918;2024-02-04T08:55:25;100542.94;;;8.33;75.75
84724;BME280;74944;52.322;16.918;2024-02-04T08:57:51;100548.72;;;8.26;75.53
84724;BME280;74944;52.322;16.918;2024-02-04T09:00:19;100535.53;;;8.33;75.55
84724;BME280;74944;52.322;16.918;2024-02-04T09:02:45;100538.25;;;8.38;74.91
84724;BME280;74944;52.322;16.918;2024-02-04T09:05:12;100539.59;;;8.41;75.67
84724;BME280;74944;52.322;16.918;2024-02-04T09:07:37;100547.78;;;8.46;75.34
84724;BME280;74944;52.322;16.918;2024-02-04T09:10:04;100534.44;;;8.34;74.80
84724;BME280;74944;52.322;16.918;2024-02-04T09:12:30;100534.94;;;8.41;74.58
84724;BME280;74944;52.322;16.918;2024-02-04T09:14:56;100547.53;;;8.42;75.31
84724;BME280;74944;52.322;16.918;2024-02-04T09:17:21;100528.03;;;8.49;74.75
84724;BME280;74944;52.322;16.918;2024-02-04T09:19:47;100538.72;;;8.45;74.52
84724;BME280;74944;52.322;16.918;2024-02-04T09:22:13;100531.59;;;8.49;74.67
84724;BME280;74944;52.322;16.918;2024-02-04T09:24:38;100525.50;;;8.57;74.38
84724;BME280;74944;52.322;16.918;2024-02-04T09:27:04;100525.50;;;8.57;73.50
84724;BME280;74944;52.322;16.918;2024-02-04T09:29:29;100526.03;;;8.59;73.79
84724;BME280;74944;52.322;16.918;2024-02-04T09:31:55;100526.91;;;8.50;73.99
84724;BME280;74944;52.322;16.918;2024-02-04T09:34:20;100525.78;;;8.55;73.98
84724;BME280;74944;52.322;16.918;2024-02-04T09:36:48;100540.00;;;8.57;73.27
84724;BME280;74944;52.322;16.918;2024-02-04T09:39:13;100520.31;;;8.55;73.36
84724;BME280;74944;52.322;16.918;2024-02-04T09:41:39;100520.00;;;8.62;72.79
84724;BME280;74944;52.322;16.918;2024-02-04T09:44:05;100524.94;;;8.60;72.98
84724;BME280;74944;52.322;16.918;2024-02-04T09:46:32;100523.00;;;8.60;72.69
84724;BME280;74944;52.322;16.918;2024-02-04T09:48:57;100527.75;;;8.50;73.32
84724;BME280;74944;52.322;16.918;2024-02-04T09:51:25;100520.69;;;8.44;73.76
84724;BME280;74944;52.322;16.918;2024-02-04T09:53:53;100529.91;;;8.53;73.00
84724;BME280;74944;52.322;16.918;2024-02-04T09:56:22;100533.31;;;8.40;73.33
84724;BME280;74944;52.322;16.918;2024-02-04T09:58:48;100528.09;;;8.44;72.93
84724;BME280;74944;52.322;16.918;2024-02-04T10:01:19;100534.84;;;8.51;72.78
84724;BME280;74944;52.322;16.918;2024-02-04T10:03:47;100528.56;;;8.51;73.52
84724;BME280;74944;52.322;16.918;2024-02-04T10:06:13;100519.81;;;8.49;72.91
84724;BME280;74944;52.322;16.918;2024-02-04T10:08:38;100518.34;;;8.61;72.97
84724;BME280;74944;52.322;16.918;2024-02-04T10:11:04;100514.41;;;8.72;72.31
84724;BME280;74944;52.322;16.918;2024-02-04T10:13:30;100508.28;;;8.85;72.15
84724;BME280;74944;52.322;16.918;2024-02-04T10:15:55;100497.88;;;8.82;71.40
84724;BME280;74944;52.322;16.918;2024-02-04T10:18:21;100504.69;;;8.89;71.16
84724;BME280;74944;52.322;16.918;2024-02-04T10:20:47;100503.28;;;8.91;71.23
84724;BME280;74944;52.322;16.918;2024-02-04T10:23:14;100500.28;;;8.88;71.46
84724;BME280;74944;52.322;16.918;2024-02-04T10:25:40;100498.41;;;8.84;71.55
84724;BME280;74944;52.322;16.918;2024-02-04T10:28:05;100508.84;;;8.82;72.03
84724;BME280;74944;52.322;16.918;2024-02-04T10:30:31;100496.28;;;8.81;72.18
84724;BME280;74944;52.322;16.918;2024-02-04T10:32:56;100489.91;;;8.85;71.99
84724;BME280;74944;52.322;16.918;2024-02-04T10:35:23;100491.00;;;8.84;71.64
84724;BME280;74944;52.322;16.918;2024-02-04T10:37:49;100477.56;;;8.87;71.75
84724;BME280;74944;52.322;16.918;2024-02-04T10:40:16;100472.63;;;8.89;71.29
84724;BME280;74944;52.322;16.918;2024-02-04T10:42:43;100465.53;;;8.88;71.43
84724;BME280;74944;52.322;16.918;2024-02-04T10:45:09;100464.75;;;8.83;72.22
84724;BME280;74944;52.322;16.918;2024-02-04T10:47:38;100456.78;;;8.87;71.20
84724;BME280;74944;52.322;16.918;2024-02-04T10:50:05;100452.44;;;8.81;71.93
84724;BME280;74944;52.322;16.918;2024-02-04T10:52:38;100428.34;;;8.83;72.18
84724;BME280;74944;52.322;16.918;2024-02-04T10:55:09;100434.63;;;8.83;72.08
84724;BME280;74944;52.322;16.918;2024-02-04T10:57:35;100426.16;;;8.80;72.06
84724;BME280;74944;52.322;16.918;2024-02-04T11:00:03;100416.84;;;8.81;72.39
84724;BME280;74944;52.322;16.918;2024-02-04T11:02:38;100415.69;;;8.87;71.96
84724;BME280;74944;52.322;16.918;2024-02-04T11:05:05;100415.19;;;8.80;71.84
84724;BME280;74944;52.322;16.918;2024-02-04T11:07:34;100410.56;;;8.80;71.48
84724;BME280;74944;52.322;16.918;2024-02-04T11:10:00;100410.25;;;8.82;72.04
84724;BME280;74944;52.322;16.918;2024-02-04T11:12:27;100399.66;;;8.75;71.88
84724;BME280;74944;52.322;16.918;2024-02-04T11:14:57;100382.69;;;8.73;72.92
84724;BME280;74944;52.322;16.918;2024-02-04T11:17:42;100392.72;;;8.83;71.68
84724;BME280;74944;52.322;16.918;2024-02-04T11:25:44;100379.31;;;8.81;72.00
84724;BME280;74944;52.322;16.918;2024-02-04T11:28:11;100371.56;;;8.88;71.54
84724;BME280;74944;52.322;16.918;2024-02-04T11:30:38;100372.84;;;8.95;71.80
84724;BME280;74944;52.322;16.918;2024-02-04T11:33:06;100373.44;;;8.92;71.64
84724;BME280;74944;52.322;16.918;2024-02-04T11:35:32;100379.59;;;9.03;71.10
84724;BME280;74944;52.322;16.918;2024-02-04T11:37:59;100368.84;;;9.06;71.29
84724;BME280;74944;52.322;16.918;2024-02-04T11:40:30;100375.47;;;9.05;70.17
84724;BME280;74944;52.322;16.918;2024-02-04T11:43:26;100368.56;;;9.08;70.84
84724;BME280;74944;52.322;16.918;2024-02-04T11:45:52;100369.69;;;9.07;70.26
84724;BME280;74944;52.322;16.918;2024-02-04T11:48:19;100371.69;;;9.01;70.30
84724;BME280;74944;52.322;16.918;2024-02-04T11:50:52;100382.03;;;9.04;70.10
84724;BME280;74944;52.322;16.918;2024-02-04T11:53:18;100366.44;;;9.05;69.83
84724;BME280;74944;52.322;16.918;2024-02-04T11:55:45;100350.00;;;9.05;69.97
84724;BME280;74944;52.322;16.918;2024-02-04T11:58:11;100352.41;;;9.06;69.62
84724;BME280;74944;52.322;16.918;2024-02-04T12:00:37;100339.44;;;9.17;68.87
84724;BME280;74944;52.322;16.918;2024-02-04T12:03:04;100334.00;;;9.12;69.83
84724;BME280;74944;52.322;16.918;2024-02-04T12:05:32;100333.72;;;9.13;68.84
84724;BME280;74944;52.322;16.918;2024-02-04T12:08:05;100326.25;;;9.19;67.97
84724;BME280;74944;52.322;16.918;2024-02-04T12:10:31;100337.13;;;9.23;67.71
84724;BME280;74944;52.322;16.918;2024-02-04T12:13:05;100325.03;;;9.24;67.50
84724;BME280;74944;52.322;16.918;2024-02-04T12:15:34;100334.69;;;9.22;67.74
84724;BME280;74944;52.322;16.918;2024-02-04T12:18:08;100327.88;;;9.20;68.28
84724;BME280;74944;52.322;16.918;2024-02-04T12:20:35;100314.53;;;9.31;67.97
84724;BME280;74944;52.322;16.918;2024-02-04T12:23:05;100316.38;;;9.36;67.50
84724;BME280;74944;52.322;16.918;2024-02-04T12:25:31;100307.94;;;9.32;67.49
84724;BME280;74944;52.322;16.918;2024-02-04T12:28:01;100309.13;;;9.26;67.14
84724;BME280;74944;52.322;16.918;2024-02-04T12:30:29;100296.16;;;9.32;67.55
84724;BME280;74944;52.322;16.918;2024-02-04T12:33:05;100304.69;;;9.30;67.63
84724;BME280;74944;52.322;16.918;2024-02-04T12:35:31;100304.38;;;9.32;67.72
84724;BME280;74944;52.322;16.918;2024-02-04T12:37:58;100288.97;;;9.36;67.72
84724;BME280;74944;52.322;16.918;2024-02-04T12:40:29;100304.63;;;9.35;67.34
84724;BME280;74944;52.322;16.918;2024-02-04T12:43:01;100295.66;;;9.30;67.80
84724;BME280;74944;52.322;16.918;2024-02-04T12:45:33;100289.25;;;9.34;66.82
84724;BME280;74944;52.322;16.918;2024-02-04T12:47:58;100294.97;;;9.38;67.19
84724;BME280;74944;52.322;16.918;2024-02-04T12:50:25;100284.00;;;9.38;67.09
84724;BME280;74944;52.322;16.918;2024-02-04T12:53:07;100287.78;;;9.42;67.23
84724;BME280;74944;52.322;16.918;2024-02-04T12:55:35;100283.34;;;9.46;66.12
84724;BME280;74944;52.322;16.918;2024-02-04T12:58:08;100282.31;;;9.42;66.48